createdAt,value
2024-02-13T00:00:17.264Z,97.25
2024-02-13T00:01:17.283Z,97.04
2024-02-13T00:02:17.243Z,96.62
2024-02-13T00:03:17.266Z,96.47
2024-02-13T00:04:17.213Z,96.67
2024-02-13T00:05:17.271Z,96.78
2024-02-13T00:06:17.250Z,96.67
2024-02-13T00:07:17.207Z,96.88
2024-02-13T00:08:17.224Z,96.78
2024-02-13T00:09:17.220Z,96.57
2024-02-13T00:10:17.144Z,96.72
2024-02-13T00:11:17.218Z,97.13
2024-02-13T00:12:17.121Z,96.72
2024-02-13T00:13:17.117Z,96.41
2024-02-13T00:14:17.160Z,96.72
2024-02-13T00:15:17.116Z,97.55
2024-02-13T00:16:17.094Z,97.55
2024-02-13T00:17:17.225Z,97.55
2024-02-13T00:18:17.178Z,97.44
2024-02-13T00:19:17.142Z,97.44
2024-02-13T00:20:17.109Z,97.34
2024-02-13T00:21:17.032Z,97.24
2024-02-13T00:22:17.011Z,97.34
2024-02-13T00:23:17.053Z,97.34
2024-02-13T00:24:16.977Z,97.24
2024-02-13T00:25:17.058Z,97.07
2024-02-13T00:26:17.142Z,96.82
2024-02-13T00:27:16.969Z,96.41
2024-02-13T00:28:16.935Z,95.93
2024-02-13T00:29:16.994Z,95.93
2024-02-13T00:30:16.942Z,95.93
2024-02-13T00:31:17.035Z,95.93
2024-02-13T00:32:16.943Z,95.93
2024-02-13T00:33:16.990Z,95.93
2024-02-13T00:34:16.893Z,95.83
2024-02-13T00:35:16.954Z,95.72
2024-02-13T00:36:17.023Z,95.72
2024-02-13T00:37:16.883Z,95.72
2024-02-13T00:38:16.967Z,95.72
2024-02-13T00:39:16.857Z,95.83
2024-02-13T00:40:16.813Z,95.83
2024-02-13T00:41:16.875Z,95.76
2024-02-13T00:42:16.787Z,95.66
2024-02-13T00:43:16.827Z,95.66
2024-02-13T00:44:16.844Z,95.76
2024-02-13T00:45:16.797Z,95.76
2024-02-13T00:46:16.800Z,96.08
2024-02-13T00:47:16.779Z,96.59
2024-02-13T00:48:16.847Z,97.01
2024-02-13T00:49:16.767Z,97.33
2024-02-13T00:50:16.736Z,97.64
2024-02-13T00:51:16.708Z,98.05
2024-02-13T00:52:16.722Z,98.01
2024-02-13T00:53:16.745Z,97.95
2024-02-13T00:54:16.662Z,97.74
2024-02-13T00:55:16.699Z,97.95
2024-02-13T00:56:16.667Z,98.16
2024-02-13T00:57:16.723Z,97.91
2024-02-13T00:58:16.662Z,97.74
2024-02-13T00:59:16.808Z,97.74
2024-02-13T01:00:16.675Z,97.64
2024-02-13T01:01:16.719Z,97.95
2024-02-13T01:02:16.572Z,98.16
2024-02-13T01:03:16.635Z,98.53
2024-02-13T01:04:16.674Z,98.68
2024-02-13T01:05:16.577Z,98.63
2024-02-13T01:06:16.584Z,98.47
2024-02-13T01:07:16.544Z,98.11
2024-02-13T01:08:16.550Z,98.16
2024-02-13T01:09:16.577Z,98.36
2024-02-13T01:10:16.535Z,98.47
2024-02-13T01:11:16.540Z,98.68
2024-02-13T01:12:16.498Z,98.78
2024-02-13T01:13:16.479Z,98.78
2024-02-13T01:14:16.460Z,98.88
2024-02-13T01:15:16.450Z,98.78
2024-02-13T01:16:16.462Z,98.78
2024-02-13T01:17:16.470Z,98.68
2024-02-13T01:18:16.485Z,98.57
2024-02-13T01:19:16.430Z,98.47
2024-02-13T01:20:16.411Z,98.36
2024-02-13T01:21:16.441Z,98.16
2024-02-13T01:22:16.367Z,97.95
2024-02-13T01:23:16.399Z,97.85
2024-02-13T01:24:16.353Z,97.74
2024-02-13T01:25:16.379Z,97.53
2024-02-13T01:26:16.326Z,97.43
2024-02-13T01:27:16.324Z,97.12
2024-02-13T01:28:16.318Z,96.91
2024-02-13T01:29:16.343Z,96.53
2024-02-13T01:30:16.279Z,96.53
2024-02-13T01:31:16.278Z,96.43
2024-02-13T01:32:16.275Z,96.43
2024-02-13T01:33:17.223Z,96.43
2024-02-13T01:34:16.277Z,96.22
2024-02-13T01:35:16.347Z,96.33
2024-02-13T01:36:16.315Z,96.22
2024-02-13T01:37:16.215Z,96.26
2024-02-13T01:38:16.249Z,96.16
2024-02-13T01:39:16.201Z,96.06
2024-02-13T01:40:16.161Z,96.06
2024-02-13T01:41:16.366Z,95.95
2024-02-13T01:42:16.139Z,95.85
2024-02-13T01:43:16.185Z,96.06
2024-02-13T01:44:16.136Z,96.16
2024-02-13T01:45:16.138Z,96.26
2024-02-13T01:46:16.134Z,96.37
2024-02-13T01:47:16.132Z,96.69
2024-02-13T01:48:16.227Z,96.79
2024-02-13T01:49:16.150Z,96.83
2024-02-13T01:50:16.102Z,96.83
2024-02-13T01:51:16.077Z,96.83
2024-02-13T01:52:16.058Z,96.94
2024-02-13T01:53:16.092Z,97.14
2024-02-13T01:54:16.023Z,97.14
2024-02-13T01:55:16.037Z,97.46
2024-02-13T01:56:16.033Z,97.56
2024-02-13T01:57:16.007Z,97.56
2024-02-13T01:58:16.024Z,97.56
2024-02-13T01:59:16.065Z,97.56
2024-02-13T02:00:15.942Z,97.56
2024-02-13T02:01:15.997Z,97.46
2024-02-13T02:02:16.076Z,97.35
2024-02-13T02:03:15.968Z,97.46
2024-02-13T02:04:16.008Z,97.46
2024-02-13T02:05:15.981Z,97.46
2024-02-13T02:06:15.972Z,97.56
2024-02-13T02:07:15.892Z,97.67
2024-02-13T02:08:15.965Z,97.88
2024-02-13T02:09:15.892Z,97.77
2024-02-13T02:10:15.870Z,97.88
2024-02-13T02:11:15.903Z,97.88
2024-02-13T02:12:15.846Z,97.98
2024-02-13T02:13:16.089Z,97.98
2024-02-13T02:14:16.007Z,98.08
2024-02-13T02:15:15.787Z,98.19
2024-02-13T02:16:15.805Z,98.08
2024-02-13T02:17:15.816Z,98.08
2024-02-13T02:18:16.064Z,97.98
2024-02-13T02:19:15.858Z,97.98
2024-02-13T02:20:15.848Z,97.98
2024-02-13T02:21:15.752Z,97.88
2024-02-13T02:22:15.756Z,97.88
2024-02-13T02:23:15.742Z,97.77
2024-02-13T02:24:15.741Z,97.77
2024-02-13T02:25:15.697Z,97.77
2024-02-13T02:26:15.743Z,97.77
2024-02-13T02:27:15.750Z,97.67
2024-02-13T02:28:15.693Z,97.67
2024-02-13T02:29:15.666Z,97.77
2024-02-13T02:30:15.658Z,97.81
2024-02-13T02:31:15.646Z,97.61
2024-02-13T02:32:15.681Z,97.50
2024-02-13T02:33:16.196Z,97.50
2024-02-13T02:34:15.728Z,97.50
2024-02-13T02:35:15.636Z,97.40
2024-02-13T02:36:15.705Z,97.50
2024-02-13T02:37:15.636Z,97.61
2024-02-13T02:38:15.756Z,97.71
2024-02-13T02:39:15.557Z,97.71
2024-02-13T02:40:15.593Z,97.81
2024-02-13T02:41:15.591Z,97.92
2024-02-13T02:42:15.607Z,97.81
2024-02-13T02:43:15.546Z,97.71
2024-02-13T02:44:15.668Z,97.81
2024-02-13T02:45:15.497Z,97.81
2024-02-13T02:46:15.514Z,97.92
2024-02-13T02:47:15.486Z,98.13
2024-02-13T02:48:15.643Z,98.02
2024-02-13T02:49:15.632Z,98.02
2024-02-13T02:50:15.494Z,98.02
2024-02-13T02:51:15.426Z,98.13
2024-02-13T02:52:15.447Z,98.23
2024-02-13T02:53:17.435Z,98.23
2024-02-13T02:54:15.434Z,98.23
2024-02-13T02:55:15.386Z,98.13
2024-02-13T02:56:15.437Z,98.18
2024-02-13T02:57:15.508Z,98.23
2024-02-13T02:58:15.384Z,98.28
2024-02-13T02:59:15.404Z,98.28
2024-02-13T03:00:15.374Z,98.28
2024-02-13T03:01:15.482Z,97.97
2024-02-13T03:02:15.352Z,98.18
2024-02-13T03:03:15.364Z,98.95
2024-02-13T03:04:15.338Z,99.26
2024-02-13T03:05:15.300Z,99.99
2024-02-13T03:06:15.400Z,99.99
2024-02-13T03:07:15.261Z,99.99
2024-02-13T03:08:15.302Z,99.99
2024-02-13T03:09:15.251Z,99.99
2024-02-13T03:10:15.304Z,99.99
2024-02-13T03:11:15.312Z,99.99
2024-02-13T03:12:15.235Z,99.99
2024-02-13T03:13:15.319Z,99.99
2024-02-13T03:14:15.286Z,99.99
2024-02-13T03:15:15.178Z,99.99
2024-02-13T03:16:15.187Z,99.99
2024-02-13T03:17:15.219Z,99.83
2024-02-13T03:18:15.413Z,99.83
2024-02-13T03:19:15.139Z,99.73
2024-02-13T03:20:15.172Z,99.73
2024-02-13T03:21:15.131Z,99.62
2024-02-13T03:22:15.282Z,99.31
2024-02-13T03:23:15.104Z,99.10
2024-02-13T03:24:15.127Z,98.99
2024-02-13T03:25:15.089Z,98.85
2024-02-13T03:26:15.174Z,98.89
2024-02-13T03:27:15.047Z,98.89
2024-02-13T03:28:15.087Z,98.74
2024-02-13T03:29:15.056Z,98.53
2024-02-13T03:30:15.045Z,98.53
2024-02-13T03:31:15.011Z,98.53
2024-02-13T03:32:15.049Z,98.43
2024-02-13T03:33:15.138Z,98.32
2024-02-13T03:34:15.114Z,98.32
2024-02-13T03:35:15.003Z,98.47
2024-02-13T03:36:14.978Z,98.47
2024-02-13T03:37:14.947Z,98.47
2024-02-13T03:38:15.009Z,98.47
2024-02-13T03:39:14.926Z,98.47
2024-02-13T03:40:14.941Z,98.47
2024-02-13T03:41:14.933Z,98.26
2024-02-13T03:42:14.918Z,98.16
2024-02-13T03:43:14.903Z,98.05
2024-02-13T03:44:14.925Z,98.05
2024-02-13T03:45:14.858Z,98.26
2024-02-13T03:46:14.887Z,98.47
2024-02-13T03:47:14.947Z,98.58
2024-02-13T03:48:15.020Z,98.79
2024-02-13T03:49:14.857Z,98.79
2024-02-13T03:50:14.967Z,98.79
2024-02-13T03:51:14.867Z,98.68
2024-02-13T03:52:14.867Z,98.68
2024-02-13T03:53:14.858Z,98.79
2024-02-13T03:54:14.809Z,98.79
2024-02-13T03:55:14.755Z,98.79
2024-02-13T03:56:14.830Z,98.68
2024-02-13T03:57:14.742Z,98.68
2024-02-13T03:58:14.735Z,98.47
2024-02-13T03:59:14.835Z,98.47
2024-02-13T04:00:14.744Z,98.47
2024-02-13T04:01:14.686Z,98.37
2024-02-13T04:02:14.721Z,98.37
2024-02-13T04:03:14.673Z,98.37
2024-02-13T04:04:14.715Z,98.26
2024-02-13T04:05:14.693Z,98.26
2024-02-13T04:06:14.917Z,98.26
2024-02-13T04:07:14.731Z,98.37
2024-02-13T04:08:14.738Z,98.47
2024-02-13T04:09:14.618Z,98.47
2024-02-13T04:10:14.660Z,98.47
2024-02-13T04:11:14.603Z,98.37
2024-02-13T04:12:14.606Z,98.37
2024-02-13T04:13:14.573Z,98.26
2024-02-13T04:14:14.643Z,98.05
2024-02-13T04:15:14.764Z,98.16
2024-02-13T04:16:14.573Z,98.26
2024-02-13T04:17:14.534Z,98.37
2024-02-13T04:18:14.619Z,98.26
2024-02-13T04:19:14.551Z,98.16
2024-02-13T04:20:14.697Z,98.16
2024-02-13T04:21:14.487Z,98.05
2024-02-13T04:22:14.485Z,97.95
2024-02-13T04:23:14.480Z,97.85
2024-02-13T04:24:14.469Z,97.85
2024-02-13T04:25:14.471Z,97.85
2024-02-13T04:26:25.141Z,97.85
2024-02-13T04:27:14.465Z,97.74
2024-02-13T04:28:14.453Z,97.64
2024-02-13T04:29:14.468Z,97.64
2024-02-13T04:30:14.432Z,97.53
2024-02-13T04:31:14.392Z,97.53
2024-02-13T04:32:14.408Z,97.53
2024-02-13T04:33:14.484Z,97.53
2024-02-13T04:34:14.519Z,97.53
2024-02-13T04:35:14.367Z,97.53
2024-02-13T04:36:14.348Z,97.53
2024-02-13T04:37:14.318Z,97.37
2024-02-13T04:38:14.364Z,97.58
2024-02-13T04:39:14.284Z,97.68
2024-02-13T04:40:14.736Z,97.58
2024-02-13T04:41:14.286Z,97.68
2024-02-13T04:42:14.394Z,97.78
2024-02-13T04:43:14.254Z,97.78
2024-02-13T04:44:14.295Z,97.78
2024-02-13T04:45:14.231Z,97.78
2024-02-13T04:46:14.245Z,97.78
2024-02-13T04:47:14.227Z,97.78
2024-02-13T04:48:14.376Z,97.68
2024-02-13T04:49:14.246Z,97.68
2024-02-13T04:50:16.524Z,97.68
2024-02-13T04:51:14.178Z,97.68
2024-02-13T04:52:14.185Z,97.68
2024-02-13T04:53:14.160Z,97.68
2024-02-13T04:54:14.153Z,97.47
2024-02-13T04:55:14.129Z,97.37
2024-02-13T04:56:14.148Z,97.47
2024-02-13T04:57:14.121Z,97.68
2024-02-13T04:58:14.115Z,97.68
2024-02-13T04:59:14.117Z,97.78
2024-02-13T05:00:14.089Z,97.78
2024-02-13T05:01:14.093Z,97.78
2024-02-13T05:02:14.105Z,97.89
2024-02-13T05:03:14.037Z,97.78
2024-02-13T05:04:14.102Z,97.83
2024-02-13T05:05:14.095Z,97.78
2024-02-13T05:06:14.114Z,97.83
2024-02-13T05:07:14.002Z,97.83
2024-02-13T05:08:14.053Z,97.83
2024-02-13T05:09:13.998Z,97.83
2024-02-13T05:10:13.987Z,97.78
2024-02-13T05:11:14.010Z,97.83
2024-02-13T05:12:13.957Z,97.72
2024-02-13T05:13:13.945Z,97.72
2024-02-13T05:14:13.947Z,97.72
2024-02-13T05:15:13.936Z,97.62
2024-02-13T05:16:13.914Z,97.52
2024-02-13T05:17:13.929Z,97.52
2024-02-13T05:18:14.058Z,97.52
2024-02-13T05:19:13.977Z,97.52
2024-02-13T05:20:13.946Z,97.52
2024-02-13T05:21:13.849Z,97.62
2024-02-13T05:22:13.858Z,97.72
2024-02-13T05:23:13.854Z,97.72
2024-02-13T05:24:13.855Z,97.52
2024-02-13T05:25:13.802Z,97.62
2024-02-13T05:26:13.884Z,97.72
2024-02-13T05:27:13.792Z,97.83
2024-02-13T05:28:13.791Z,97.83
2024-02-13T05:29:13.788Z,97.83
2024-02-13T05:30:13.768Z,98.25
2024-02-13T05:31:13.849Z,98.35
2024-02-13T05:32:13.797Z,98.67
2024-02-13T05:33:13.968Z,98.67
2024-02-13T05:34:13.836Z,98.67
2024-02-13T05:35:14.554Z,98.46
2024-02-13T05:36:13.711Z,98.35
2024-02-13T05:37:13.701Z,98.25
2024-02-13T05:38:13.749Z,98.25
2024-02-13T05:39:13.673Z,98.35
2024-02-13T05:40:13.720Z,98.67
2024-02-13T05:41:13.694Z,98.88
2024-02-13T05:42:13.650Z,98.98
2024-02-13T05:43:13.618Z,99.08
2024-02-13T05:44:13.658Z,99.08
2024-02-13T05:45:13.603Z,99.29
2024-02-13T05:46:13.616Z,99.51
2024-02-13T05:47:13.617Z,99.51
2024-02-13T05:48:13.727Z,99.61
2024-02-13T05:49:13.598Z,99.61
2024-02-13T05:50:13.626Z,99.71
2024-02-13T05:51:13.530Z,99.61
2024-02-13T05:52:13.552Z,99.71
2024-02-13T05:53:13.538Z,99.71
2024-02-13T05:54:13.617Z,99.99
2024-02-13T05:55:13.490Z,99.99
2024-02-13T05:56:13.601Z,99.99
2024-02-13T05:57:13.501Z,99.99
2024-02-13T05:58:13.493Z,99.99
2024-02-13T05:59:13.668Z,99.99
2024-02-13T06:00:13.606Z,99.99
2024-02-13T06:01:13.556Z,99.99
2024-02-13T06:02:13.470Z,99.99
2024-02-13T06:03:13.442Z,99.99
2024-02-13T06:05:38.984Z,99.99
2024-02-13T06:05:44.478Z,99.99
2024-02-13T06:06:44.379Z,99.99
2024-02-13T06:07:44.297Z,99.99
2024-02-13T06:08:44.323Z,99.99
2024-02-13T06:09:44.278Z,99.99
2024-02-13T06:10:44.294Z,99.99
2024-02-13T06:11:44.328Z,99.99
2024-02-13T06:12:44.238Z,99.99
2024-02-13T06:13:44.219Z,99.99
2024-02-13T06:14:44.229Z,99.99
2024-02-13T06:15:44.199Z,99.99
2024-02-13T06:16:44.177Z,99.99
2024-02-13T06:17:44.264Z,99.99
2024-02-13T06:18:44.283Z,99.99
2024-02-13T06:19:44.280Z,99.99
2024-02-13T06:20:44.164Z,99.99
2024-02-13T06:21:44.144Z,99.99
2024-02-13T06:22:44.131Z,99.99
2024-02-13T06:23:44.171Z,99.99
2024-02-13T06:24:44.198Z,99.99
2024-02-13T06:25:44.094Z,99.99
2024-02-13T06:26:44.169Z,99.99
2024-02-13T06:27:44.070Z,99.99
2024-02-13T06:28:44.073Z,99.99
2024-02-13T06:29:44.120Z,99.99
2024-02-13T06:30:44.068Z,99.99
2024-02-13T06:31:44.037Z,99.99
2024-02-13T06:32:44.122Z,99.99
2024-02-13T06:33:44.155Z,99.99
2024-02-13T06:34:44.032Z,99.99
2024-02-13T06:35:44.055Z,99.99
2024-02-13T06:36:43.992Z,99.99
2024-02-13T06:37:43.974Z,99.99
2024-02-13T06:38:44.001Z,99.99
2024-02-13T06:39:43.939Z,99.99
2024-02-13T06:40:43.935Z,99.99
2024-02-13T06:41:43.933Z,99.99
2024-02-13T06:42:43.916Z,99.99
2024-02-13T06:43:43.929Z,99.99
2024-02-13T06:44:43.922Z,99.99
2024-02-13T06:45:43.866Z,99.99
2024-02-13T06:46:43.995Z,99.99
2024-02-13T06:47:43.935Z,99.99
2024-02-13T06:48:44.004Z,99.99
2024-02-13T06:49:43.872Z,99.99
2024-02-13T06:50:43.900Z,99.99
2024-02-13T06:51:43.822Z,99.99
2024-02-13T06:52:43.821Z,99.99
2024-02-13T06:53:43.930Z,99.99
2024-02-13T06:54:43.830Z,99.99
2024-02-13T06:55:43.760Z,99.99
2024-02-13T06:56:43.818Z,99.99
2024-02-13T06:57:43.791Z,99.99
2024-02-13T06:58:43.761Z,99.99
2024-02-13T06:59:43.843Z,99.99
2024-02-13T07:00:43.784Z,99.99
2024-02-13T07:01:43.722Z,99.99
2024-02-13T07:02:43.721Z,99.99
2024-02-13T07:03:43.816Z,99.99
2024-02-13T07:04:43.712Z,99.99
2024-02-13T07:05:43.712Z,99.99
2024-02-13T07:06:55.286Z,99.99
2024-02-13T07:07:47.708Z,99.99
2024-02-13T07:08:43.735Z,99.99
2024-02-13T07:09:43.748Z,99.99
2024-02-13T07:10:43.716Z,99.99
2024-02-13T07:11:43.669Z,99.99
2024-02-13T07:12:43.650Z,99.99
2024-02-13T07:13:43.582Z,99.99
2024-02-13T07:14:43.690Z,99.99
2024-02-13T07:15:43.719Z,99.99
2024-02-13T07:16:43.563Z,99.99
2024-02-13T07:17:52.699Z,99.99
2024-02-13T07:18:43.705Z,99.99
2024-02-13T07:19:43.636Z,99.94
2024-02-13T07:20:43.622Z,99.94
2024-02-13T07:21:43.522Z,99.79
2024-02-13T07:22:43.600Z,99.68
2024-02-13T07:23:43.685Z,99.58
2024-02-13T07:24:43.576Z,99.58
2024-02-13T07:25:43.507Z,99.58
2024-02-13T07:26:43.520Z,99.48
2024-02-13T07:27:43.520Z,99.58
2024-02-13T07:28:43.492Z,99.48
2024-02-13T07:29:43.474Z,99.48
2024-02-13T07:30:43.466Z,99.37
2024-02-13T07:31:43.395Z,99.22
2024-02-13T07:32:43.795Z,99.22
2024-02-13T07:33:43.558Z,99.12
2024-02-13T07:34:43.523Z,99.02
2024-02-13T07:35:43.384Z,98.91
2024-02-13T07:36:43.408Z,98.71
2024-02-13T07:37:43.339Z,98.50
2024-02-13T07:38:43.370Z,98.50
2024-02-13T07:39:43.313Z,98.50
2024-02-13T07:40:43.344Z,98.39
2024-02-13T07:41:43.333Z,98.39
2024-02-13T07:42:43.293Z,97.83
2024-02-13T07:43:43.279Z,96.89
2024-02-13T07:44:43.298Z,96.58
2024-02-13T07:45:43.263Z,96.44
2024-02-13T07:46:43.258Z,96.33
2024-02-13T07:47:43.372Z,96.23
2024-02-13T07:48:43.376Z,95.98
2024-02-13T07:49:43.227Z,95.56
2024-02-13T07:50:43.254Z,95.87
2024-02-13T07:51:43.311Z,95.93
2024-02-13T07:52:43.208Z,95.83
2024-02-13T07:53:43.217Z,95.00
2024-02-13T07:54:43.170Z,95.10
2024-02-13T07:55:43.140Z,94.89
2024-02-13T07:56:43.175Z,94.33
2024-02-13T07:57:43.126Z,94.23
2024-02-13T07:58:43.136Z,94.02
2024-02-13T07:59:43.138Z,93.91
2024-02-13T08:00:43.145Z,92.88
2024-02-13T08:01:43.084Z,93.08
2024-02-13T08:02:43.135Z,93.40
2024-02-13T08:03:43.202Z,93.44
2024-02-13T08:04:43.562Z,93.75
2024-02-13T08:05:43.203Z,94.17
2024-02-13T08:06:43.154Z,94.06
2024-02-13T08:07:43.013Z,94.06
2024-02-13T08:08:43.088Z,93.91
2024-02-13T08:09:43.009Z,93.71
2024-02-13T08:10:43.032Z,93.29
2024-02-13T08:11:42.979Z,93.40
2024-02-13T08:12:42.973Z,93.19
2024-02-13T08:13:42.966Z,93.19
2024-02-13T08:14:43.033Z,92.98
2024-02-13T08:15:42.920Z,93.19
2024-02-13T08:16:42.995Z,92.88
2024-02-13T08:17:42.994Z,92.68
2024-02-13T08:18:43.061Z,92.74
2024-02-13T08:19:42.956Z,92.84
2024-02-13T08:20:43.178Z,92.74
2024-02-13T08:21:42.874Z,92.32
2024-02-13T08:22:42.876Z,92.22
2024-02-13T08:23:42.919Z,92.80
2024-02-13T08:24:42.873Z,92.24
2024-02-13T08:25:42.830Z,91.41
2024-02-13T08:26:42.852Z,91.61
2024-02-13T08:27:42.808Z,91.72
2024-02-13T08:28:42.812Z,91.26
2024-02-13T08:29:42.782Z,90.25
2024-02-13T08:30:42.832Z,88.55
2024-02-13T08:31:42.751Z,86.30
2024-02-13T08:32:43.096Z,83.13
2024-02-13T08:33:43.124Z,82.06
2024-02-13T08:34:42.882Z,82.92
2024-02-13T08:35:42.893Z,81.16
2024-02-13T08:36:42.727Z,78.86
2024-02-13T08:37:42.715Z,78.75
2024-02-13T08:38:42.718Z,77.82
2024-02-13T08:39:42.681Z,76.25
2024-02-13T08:40:42.712Z,75.29
2024-02-13T08:41:42.714Z,73.02
2024-02-13T08:42:42.664Z,70.87
2024-02-13T08:43:42.702Z,71.62
2024-02-13T08:44:42.699Z,72.55
2024-02-13T08:45:42.622Z,72.89
2024-02-13T08:46:42.602Z,72.44
2024-02-13T08:47:42.778Z,71.59
2024-02-13T08:48:43.071Z,69.89
2024-02-13T08:49:42.692Z,69.51
2024-02-13T08:50:42.630Z,70.91
2024-02-13T08:51:42.581Z,67.23
2024-02-13T08:52:42.533Z,67.52
2024-02-13T08:53:42.637Z,68.21
2024-02-13T08:54:42.515Z,68.01
2024-02-13T08:55:42.509Z,67.87
2024-02-13T08:56:42.553Z,66.41
2024-02-13T08:57:42.472Z,66.85
2024-02-13T08:58:42.492Z,67.80
2024-02-13T08:59:42.498Z,68.04
2024-02-13T09:00:42.465Z,69.71
2024-02-13T09:01:42.422Z,70.02
2024-02-13T09:02:42.510Z,68.73
2024-02-13T09:03:42.440Z,68.15
2024-02-13T09:04:42.429Z,68.55
2024-02-13T09:05:42.473Z,70.29
2024-02-13T09:06:42.495Z,71.52
2024-02-13T09:07:42.357Z,71.72
2024-02-13T09:08:43.316Z,71.18
2024-02-13T09:09:42.351Z,71.15
2024-02-13T09:10:42.351Z,70.53
2024-02-13T09:11:42.373Z,71.11
2024-02-13T09:12:42.345Z,73.57
2024-02-13T09:13:42.466Z,73.78
2024-02-13T09:14:42.314Z,74.80
2024-02-13T09:15:42.278Z,75.83
2024-02-13T09:16:42.287Z,74.26
2024-02-13T09:17:42.327Z,75.70
2024-02-13T09:18:43.083Z,77.35
2024-02-13T09:19:42.316Z,80.20
2024-02-13T09:20:42.298Z,81.58
2024-02-13T09:21:42.214Z,81.31
2024-02-13T09:22:42.215Z,82.24
2024-02-13T09:23:42.227Z,82.86
2024-02-13T09:24:42.208Z,82.96
2024-02-13T09:25:42.160Z,83.00
2024-02-13T09:26:42.249Z,83.62
2024-02-13T09:27:42.152Z,83.93
2024-02-13T09:28:42.188Z,83.41
2024-02-13T09:29:42.168Z,83.62
2024-02-13T09:30:42.179Z,83.72
2024-02-13T09:31:44.075Z,83.93
2024-02-13T09:32:42.167Z,83.65
2024-02-13T09:33:42.268Z,84.28
2024-02-13T09:34:42.100Z,85.31
2024-02-13T09:35:42.175Z,85.10
2024-02-13T09:36:42.074Z,85.31
2024-02-13T09:37:44.578Z,85.41
2024-02-13T09:38:42.479Z,85.21
2024-02-13T09:39:42.024Z,84.89
2024-02-13T09:40:42.075Z,84.28
2024-02-13T09:41:42.070Z,84.69
2024-02-13T09:42:42.011Z,84.89
2024-02-13T09:43:45.206Z,85.14
2024-02-13T09:44:42.009Z,85.45
2024-02-13T09:45:41.956Z,85.24
2024-02-13T09:46:41.966Z,85.14
2024-02-13T09:47:42.274Z,85.35
2024-02-13T09:48:42.169Z,84.69
2024-02-13T09:49:44.647Z,83.76
2024-02-13T09:50:41.948Z,83.25
2024-02-13T09:51:41.894Z,83.20
2024-02-13T09:52:41.893Z,82.24
2024-02-13T09:53:42.158Z,81.79
2024-02-13T09:54:41.874Z,81.44
2024-02-13T09:55:44.103Z,80.00
2024-02-13T09:56:41.868Z,80.65
2024-02-13T09:57:41.857Z,80.24
2024-02-13T09:58:41.822Z,80.04
2024-02-13T09:59:41.851Z,80.58
2024-02-13T10:00:41.841Z,81.21
2024-02-13T10:01:41.767Z,80.90
2024-02-13T10:02:41.889Z,81.62
2024-02-13T10:03:41.777Z,81.27
2024-02-13T10:04:41.754Z,81.51
2024-02-13T10:05:41.823Z,81.00
2024-02-13T10:06:41.857Z,80.69
2024-02-13T10:07:43.769Z,80.83
2024-02-13T10:08:42.217Z,81.35
2024-02-13T10:09:41.686Z,81.96
2024-02-13T10:10:41.695Z,81.04
2024-02-13T10:11:41.699Z,80.52
2024-02-13T10:12:41.682Z,80.76
2024-02-13T10:13:46.644Z,81.18
2024-02-13T10:14:41.674Z,80.25
2024-02-13T10:15:41.630Z,80.66
2024-02-13T10:16:41.636Z,80.56
2024-02-13T10:17:41.765Z,80.04
2024-02-13T10:18:41.720Z,80.32
2024-02-13T10:19:41.626Z,79.66
2024-02-13T10:20:41.621Z,79.04
2024-02-13T10:21:41.585Z,78.83
2024-02-13T10:22:41.552Z,79.14
2024-02-13T10:23:41.591Z,78.31
2024-02-13T10:24:41.537Z,77.91
2024-02-13T10:25:41.495Z,78.31
2024-02-13T10:26:41.593Z,78.42
2024-02-13T10:27:41.496Z,78.69
2024-02-13T10:28:41.504Z,78.01
2024-02-13T10:29:41.484Z,78.52
2024-02-13T10:30:41.477Z,78.14
2024-02-13T10:31:42.882Z,78.73
2024-02-13T10:32:41.512Z,77.66
2024-02-13T10:33:41.461Z,77.15
2024-02-13T10:34:41.469Z,76.21
2024-02-13T10:35:41.451Z,76.21
2024-02-13T10:36:41.430Z,76.15
2024-02-13T10:37:41.364Z,76.15
2024-02-13T10:38:41.382Z,75.84
2024-02-13T10:39:41.362Z,76.15
2024-02-13T10:40:41.333Z,76.87
2024-02-13T10:41:41.826Z,76.46
2024-02-13T10:42:41.325Z,76.04
2024-02-13T10:43:43.542Z,75.60
2024-02-13T10:44:41.300Z,75.81
2024-02-13T10:45:41.319Z,75.39
2024-02-13T10:46:41.300Z,74.88
2024-02-13T10:47:41.725Z,74.02
2024-02-13T10:48:41.373Z,72.88
2024-02-13T10:49:43.798Z,73.22
2024-02-13T10:50:41.288Z,73.71
2024-02-13T10:51:41.239Z,72.78
2024-02-13T10:52:41.205Z,72.58
2024-02-13T10:53:41.248Z,72.06
2024-02-13T10:54:41.187Z,72.99
2024-02-13T10:55:43.617Z,72.16
2024-02-13T10:56:41.315Z,72.37
2024-02-13T10:57:41.158Z,71.44
2024-02-13T10:58:41.204Z,72.03
2024-02-13T10:59:41.149Z,71.82
2024-02-13T11:00:41.151Z,71.58
2024-02-13T11:01:41.280Z,71.34
2024-02-13T11:02:41.146Z,71.10
2024-02-13T11:03:41.099Z,70.62
2024-02-13T11:04:41.108Z,71.03
2024-02-13T11:05:41.083Z,71.24
2024-02-13T11:06:41.080Z,70.93
2024-02-13T11:07:43.855Z,71.03
2024-02-13T11:08:41.067Z,71.41
2024-02-13T11:09:41.028Z,71.07
2024-02-13T11:10:40.997Z,70.45
2024-02-13T11:11:41.096Z,70.86
2024-02-13T11:12:41.015Z,71.28
2024-02-13T11:13:41.006Z,69.94
2024-02-13T11:14:41.017Z,70.25
2024-02-13T11:15:40.975Z,71.14
2024-02-13T11:16:40.989Z,71.48
2024-02-13T11:17:41.020Z,72.20
2024-02-13T11:18:41.071Z,71.86
2024-02-13T11:19:45.215Z,71.14
2024-02-13T11:20:40.964Z,70.93
2024-02-13T11:21:40.901Z,71.00
2024-02-13T11:22:40.872Z,70.21
2024-02-13T11:23:40.910Z,70.07
2024-02-13T11:24:40.847Z,69.76
2024-02-13T11:25:43.546Z,68.74
2024-02-13T11:26:40.908Z,68.91
2024-02-13T11:27:41.023Z,67.85
2024-02-13T11:28:40.842Z,68.37
2024-02-13T11:29:40.902Z,67.75
2024-02-13T11:30:40.787Z,67.20
2024-02-13T11:31:41.324Z,66.38
2024-02-13T11:32:41.011Z,65.80
2024-02-13T11:33:40.935Z,66.00
2024-02-13T11:34:41.156Z,66.34
2024-02-13T11:35:41.142Z,66.44
2024-02-13T11:36:40.815Z,66.41
2024-02-13T11:37:40.745Z,67.10
2024-02-13T11:38:40.768Z,65.83
2024-02-13T11:39:40.707Z,65.01
2024-02-13T11:40:40.714Z,64.29
2024-02-13T11:41:40.722Z,63.65
2024-02-13T11:42:40.648Z,63.65
2024-02-13T11:43:40.655Z,62.83
2024-02-13T11:44:40.654Z,62.83
2024-02-13T11:45:40.653Z,62.75
2024-02-13T11:46:41.057Z,63.57
2024-02-13T11:47:40.759Z,63.37
2024-02-13T11:48:40.997Z,63.47
2024-02-13T11:49:40.711Z,63.37
2024-02-13T11:50:40.666Z,63.24
2024-02-13T11:51:40.610Z,63.54
2024-02-13T11:52:40.559Z,62.83
2024-02-13T11:53:40.570Z,62.49
2024-02-13T11:54:40.526Z,61.98
2024-02-13T11:55:40.537Z,62.29
2024-02-13T11:56:40.558Z,63.24
2024-02-13T11:57:40.548Z,63.10
2024-02-13T11:58:40.490Z,62.70
2024-02-13T11:59:42.361Z,62.56
2024-02-13T12:00:40.522Z,62.15
2024-02-13T12:01:40.465Z,62.12
2024-02-13T12:02:41.124Z,62.26
2024-02-13T12:03:40.492Z,62.43
2024-02-13T12:04:40.574Z,61.82
2024-02-13T12:05:40.473Z,61.38
2024-02-13T12:06:40.498Z,62.10
2024-02-13T12:07:40.453Z,60.74
2024-02-13T12:08:40.452Z,61.04
2024-02-13T12:09:40.390Z,60.42
2024-02-13T12:10:40.351Z,60.15
2024-02-13T12:11:40.402Z,60.28
2024-02-13T12:12:40.321Z,61.30
2024-02-13T12:13:40.364Z,61.30
2024-02-13T12:14:40.424Z,61.61
2024-02-13T12:15:40.310Z,61.27
2024-02-13T12:16:40.286Z,62.30
2024-02-13T12:17:40.378Z,61.58
2024-02-13T12:18:40.476Z,60.66
2024-02-13T12:19:40.313Z,59.53
2024-02-13T12:20:40.279Z,59.18
2024-02-13T12:21:40.245Z,61.02
2024-02-13T12:22:40.220Z,60.72
2024-02-13T12:23:40.266Z,59.84
2024-02-13T12:24:40.195Z,59.46
2024-02-13T12:25:40.217Z,59.46
2024-02-13T12:26:40.201Z,59.69
2024-02-13T12:27:40.199Z,60.72
2024-02-13T12:28:40.159Z,60.79
2024-02-13T12:29:40.242Z,60.86
2024-02-13T12:30:40.125Z,58.74
2024-02-13T12:31:40.151Z,59.25
2024-02-13T12:32:40.265Z,59.33
2024-02-13T12:33:40.224Z,59.02
2024-02-13T12:34:40.301Z,59.74
2024-02-13T12:35:40.155Z,59.02
2024-02-13T12:36:40.114Z,58.54
2024-02-13T12:37:40.062Z,59.82
2024-02-13T12:38:40.112Z,60.64
2024-02-13T12:39:40.080Z,60.57
2024-02-13T12:40:40.013Z,60.05
2024-02-13T12:41:40.047Z,59.64
2024-02-13T12:42:39.994Z,60.08
2024-02-13T12:43:40.006Z,60.19
2024-02-13T12:44:40.017Z,60.70
2024-02-13T12:45:40.024Z,60.39
2024-02-13T12:46:39.955Z,60.08
2024-02-13T12:47:40.065Z,60.98
2024-02-13T12:48:41.405Z,60.05
2024-02-13T12:49:40.164Z,59.75
2024-02-13T12:50:40.039Z,59.44
2024-02-13T12:51:39.975Z,60.13
2024-02-13T12:52:39.888Z,60.10